Glacier National Park, MT

1:03 AM MDT on March 31, 2015 (GMT -0600)
MesoWest | | Change Station
CLOSE
Current Station
Personal Weather Station
Location: Browning, MT
Elevation: 4750 ft
Nearby Weather Stations
Active Advisory: High Wind Watch Active Notice: Record Report

Elev 4750 ft 48.45 °N, 113.20 °W | Updated 41 minutes ago

Partly Cloudy
Partly Cloudy
47 °F
Feels Like 47 °F
N
2
Wind Variable Wind from SW
Gusts 6.0 mph

Today
High -- | Low -- °F
--% Chance of Precip.
Yesterday
High -- | Low -- °F
Precip. -- in
7:14 AM 8:03 PM
Waxing Gibbous, 85% visible
Pressure 29.79 in
Visibility 10.0 miles
Clouds Clear
Windchill 47 °F
Dew Point 20 °F
Humidity 34%
Rainfall in
Snow Depth Not available.
UV 0 out of 12
Pollen 3.50 out of 12
Air Quality Not available.
Flu Activity Not available.
METAR KCTB 310656Z AUTO 22012KT 10SM CLR 11/M04 A2983 RMK AO2 SLP088 T01111044 401940028

More Conditions Fewer Conditions

Pressure 29.79 in
Visibility 10.0 miles
Clouds Clear
Windchill 47 °F
Dew Point 20 °F
Humidity 34%
Rainfall in
Snow Depth Not available.
UV 0 out of 12
Pollen 3.50 out of 12
Air Quality Not available.
Flu Activity Not available.
METAR KCTB 310656Z AUTO 22012KT 10SM CLR 11/M04 A2983 RMK AO2 SLP088 T01111044 401940028

More Conditions Fewer Conditions

10-Day Weather Forecast

Almanac

Astronomy

Mar. 31, 2015 Rise Set
Actual Time
Civil Twilight
Nautical Twilight
Astronomical Twilight
Moon
Length of Visible Light
Length of Day
Tomorrow will be .
, % of the Moon is Illuminated

Today's Extremes

State Highs State Lows

Community

WunderPhotos

Upload Photos

1,809,729 photos uploaded!

WunderBlogs® & News

Nearby

Air Quality

  Air Quality AQ Index Pollutant
Not available.

Snow Depth

Station Depth Elevation

Earthquake Activity

City Distance Mag. Time & Date
Minimum magnitude displayed is 2.5.

Coastal Water Temperatures

Place Temperature

Stations

Nearby Weather Stations

Station Location Temp. Windchill Dew Point Humidity Wind Precip. Elev Updated Type
                   
High Wind Watch
Statement as of 2:41 PM MDT on March 30, 2015

... High wind watch in effect from Tuesday afternoon through late
Tuesday night...

The National Weather Service in Great Falls has issued a high
wind watch... which is in effect from Tuesday afternoon through
late Tuesday night.

* Timing and main impact: west wind will strengthen Tuesday
morning and become very strong by noon. Travel could be
hazardous for those driving high profile vehicles.

* Winds: 30 to 40 mph with gusts to 65 mph.

* Locations affected include: Browning... Marias Pass

* to see a graphical representation of this hazard please visit
our web Page and click on the detailed hazards tab:


Precautionary/preparedness actions...

A high wind watch means there is the potential for a hazardous
high wind event. Sustained winds of at least 40 mph... or gusts of
58 mph or stronger may occur. Continue to monitor the latest
forecasts.